createdAt,value
2023-01-19T00:00:49.682Z,1.74
2023-01-19T00:03:16.458Z,1.83
2023-01-19T00:05:44.009Z,1.48
2023-01-19T00:08:17.709Z,1.56
2023-01-19T00:10:47.582Z,1.48
2023-01-19T00:13:14.837Z,1.51
2023-01-19T00:15:41.535Z,1.36
2023-01-19T00:18:10.750Z,1.52
2023-01-19T00:20:38.149Z,1.70
2023-01-19T00:23:05.247Z,1.81
2023-01-19T00:25:32.165Z,1.67
2023-01-19T00:28:01.380Z,1.66
2023-01-19T00:30:28.608Z,1.40
2023-01-19T00:32:55.707Z,1.34
2023-01-19T00:35:22.309Z,1.28
2023-01-19T00:37:48.904Z,1.31
2023-01-19T00:40:15.781Z,1.14
2023-01-19T00:42:44.530Z,1.17
2023-01-19T00:45:14.049Z,1.17
2023-01-19T00:47:40.882Z,1.10
2023-01-19T00:50:11.872Z,1.10
2023-01-19T00:52:39.389Z,1.06
2023-01-19T00:55:08.211Z,1.10
2023-01-19T00:57:35.084Z,1.23
2023-01-19T01:00:01.967Z,1.28
2023-01-19T01:02:28.756Z,1.15
2023-01-19T01:04:56.805Z,1.21
2023-01-19T01:07:24.897Z,1.29
2023-01-19T01:09:51.646Z,1.35
2023-01-19T01:12:18.263Z,1.38
2023-01-19T01:14:44.877Z,1.42
2023-01-19T01:17:14.374Z,1.20
2023-01-19T01:19:41.696Z,0.99
2023-01-19T01:22:09.826Z,1.07
2023-01-19T01:24:36.607Z,0.92
2023-01-19T01:27:03.324Z,0.70
2023-01-19T01:29:29.917Z,0.72
2023-01-19T01:31:56.559Z,0.74
2023-01-19T01:34:23.162Z,0.86
2023-01-19T01:36:49.757Z,0.84
2023-01-19T01:39:16.339Z,0.81
2023-01-19T01:41:42.943Z,0.61
2023-01-19T01:44:50.110Z,0.47
2023-01-19T01:47:41.744Z,0.51
2023-01-19T01:50:27.560Z,0.61
2023-01-19T01:53:12.102Z,0.68
2023-01-19T01:55:45.387Z,0.65
2023-01-19T01:58:13.871Z,0.63
2023-01-19T02:00:59.921Z,0.76
2023-01-19T02:03:28.146Z,0.63
2023-01-19T02:05:59.426Z,0.27
2023-01-19T02:08:55.750Z,0.43
2023-01-19T02:11:41.211Z,0.68
2023-01-19T02:14:08.159Z,0.76
2023-01-19T02:16:37.538Z,0.73
2023-01-19T02:19:07.236Z,0.77
2023-01-19T02:21:46.787Z,0.86
2023-01-19T02:24:13.964Z,0.85
2023-01-19T02:26:44.377Z,0.89
2023-01-19T02:29:14.709Z,1.06
2023-01-19T02:31:41.693Z,0.82
2023-01-19T02:34:11.102Z,0.53
2023-01-19T02:36:54.458Z,0.61
2023-01-19T02:39:25.634Z,0.37
2023-01-19T02:42:00.404Z,0.39
2023-01-19T02:44:29.217Z,0.43
2023-01-19T02:46:56.323Z,0.39
2023-01-19T02:49:23.865Z,0.32
2023-01-19T02:51:50.561Z,0.41
2023-01-19T02:54:28.914Z,0.52
2023-01-19T02:57:07.425Z,0.35
2023-01-19T03:00:01.504Z,0.39
2023-01-19T03:02:46.596Z,0.50
2023-01-19T03:05:31.295Z,0.28
2023-01-19T03:07:57.877Z,0.04
2023-01-19T03:10:42.912Z,0.19
2023-01-19T03:13:37.430Z,0.32
2023-01-19T03:16:16.324Z,0.39
2023-01-19T03:18:47.949Z,0.37
2023-01-19T03:21:19.680Z,0.51
2023-01-19T03:23:49.138Z,0.47
2023-01-19T03:26:24.016Z,0.41
2023-01-19T03:28:51.574Z,0.41
2023-01-19T03:31:22.901Z,0.49
2023-01-19T03:33:56.280Z,0.59
2023-01-19T03:36:31.234Z,0.40
2023-01-19T03:39:01.147Z,0.41
2023-01-19T03:41:30.472Z,0.47
2023-01-19T03:43:58.936Z,0.38
2023-01-19T03:46:27.304Z,0.40
2023-01-19T03:48:54.318Z,0.39
2023-01-19T03:51:22.168Z,0.49
2023-01-19T03:53:50.120Z,0.60
2023-01-19T03:56:24.879Z,0.73
2023-01-19T03:58:52.136Z,0.49
2023-01-19T04:01:23.382Z,0.72
2023-01-19T04:03:51.349Z,0.69
2023-01-19T04:06:19.013Z,0.71
2023-01-19T04:08:48.783Z,0.79
2023-01-19T04:11:15.559Z,0.83
2023-01-19T04:13:42.150Z,0.79
2023-01-19T04:16:10.656Z,0.84
2023-01-19T04:18:37.691Z,0.58
2023-01-19T04:21:07.161Z,0.59
2023-01-19T04:23:34.502Z,0.64
2023-01-19T04:26:03.941Z,0.73
2023-01-19T04:28:31.305Z,0.63
2023-01-19T04:30:58.247Z,0.71
2023-01-19T04:33:25.537Z,0.71
2023-01-19T04:35:54.406Z,0.67
2023-01-19T04:38:22.657Z,0.59
2023-01-19T04:40:50.814Z,0.73
2023-01-19T04:43:17.605Z,0.94
2023-01-19T04:45:44.886Z,1.02
2023-01-19T04:48:12.410Z,1.07
2023-01-19T04:50:39.237Z,1.25
2023-01-19T04:53:05.922Z,1.14
2023-01-19T04:55:32.517Z,1.21
2023-01-19T04:57:59.489Z,1.01
2023-01-19T05:00:26.969Z,1.05
2023-01-19T05:02:53.719Z,1.10
2023-01-19T05:05:20.403Z,1.29
2023-01-19T05:07:47.075Z,1.40
2023-01-19T05:10:13.756Z,1.49
2023-01-19T05:12:42.204Z,1.59
2023-01-19T05:15:09.726Z,1.56
2023-01-19T05:17:36.848Z,1.68
2023-01-19T05:20:04.680Z,1.78
2023-01-19T05:22:31.334Z,1.82
2023-01-19T05:24:58.423Z,1.78
2023-01-19T05:27:25.126Z,1.45
2023-01-19T05:29:52.083Z,1.51
2023-01-19T05:32:18.768Z,1.60
2023-01-19T05:34:45.383Z,1.66
2023-01-19T05:37:12.082Z,1.43
2023-01-19T05:39:38.703Z,1.17
2023-01-19T05:42:05.485Z,0.99
2023-01-19T05:44:32.109Z,0.94
2023-01-19T05:46:58.844Z,0.86
2023-01-19T05:49:25.583Z,0.65
2023-01-19T05:51:52.176Z,0.60
2023-01-19T05:54:18.829Z,0.39
2023-01-19T05:56:45.695Z,0.12
2023-01-19T05:59:13.315Z,0.15
2023-01-19T06:01:40.450Z,0.00
2023-01-19T06:04:07.541Z,-0.04
2023-01-19T06:06:34.211Z,-0.12
2023-01-19T06:09:00.884Z,-0.14
2023-01-19T06:11:28.548Z,-0.09
2023-01-19T06:13:55.153Z,-0.16
2023-01-19T06:16:21.783Z,-0.35
2023-01-19T06:18:48.418Z,-0.34
2023-01-19T06:21:15.108Z,-0.23
2023-01-19T06:23:41.707Z,-0.17
2023-01-19T06:26:08.515Z,-0.16
2023-01-19T06:28:35.209Z,-0.03
2023-01-19T06:31:02.050Z,0.09
2023-01-19T06:33:28.890Z,0.07
2023-01-19T06:35:56.244Z,0.04
2023-01-19T06:38:23.398Z,0.05
2023-01-19T06:40:55.209Z,0.04
2023-01-19T06:43:22.139Z,0.16
2023-01-19T06:45:50.207Z,0.17
2023-01-19T06:48:17.388Z,0.47
2023-01-19T06:50:48.015Z,0.52
2023-01-19T06:53:16.794Z,0.48
2023-01-19T06:55:44.084Z,0.34
2023-01-19T06:58:11.580Z,0.59
2023-01-19T07:00:38.746Z,0.57
2023-01-19T07:03:08.364Z,0.37
2023-01-19T07:05:36.072Z,0.42
2023-01-19T07:08:03.355Z,0.59
2023-01-19T07:11:26.681Z,0.51
2023-01-19T07:13:16.644Z,0.46
2023-01-19T07:15:43.750Z,0.45
2023-01-19T07:18:10.379Z,0.37
2023-01-19T07:20:37.944Z,0.46
2023-01-19T07:23:04.801Z,0.66
2023-01-19T07:25:31.962Z,0.96
2023-01-19T07:27:59.720Z,1.06
2023-01-19T07:30:26.538Z,1.24
2023-01-19T07:32:57.122Z,1.43
2023-01-19T07:35:24.978Z,1.54
2023-01-19T07:37:51.672Z,1.38
2023-01-19T07:40:18.294Z,1.39
2023-01-19T07:42:49.267Z,1.24
2023-01-19T07:45:17.622Z,1.25
2023-01-19T07:47:45.438Z,1.06
2023-01-19T07:50:13.844Z,1.00
2023-01-19T07:52:40.982Z,0.84
2023-01-19T07:55:08.303Z,0.85
2023-01-19T07:57:36.291Z,0.89
2023-01-19T08:00:05.060Z,0.87
2023-01-19T08:02:34.044Z,0.84
2023-01-19T08:05:00.701Z,0.81
2023-01-19T08:07:27.405Z,0.64
2023-01-19T08:09:54.050Z,0.63
2023-01-19T08:12:20.640Z,0.58
2023-01-19T08:14:47.296Z,0.46
2023-01-19T08:17:14.144Z,0.51
2023-01-19T08:19:42.216Z,0.39
2023-01-19T08:22:09.091Z,0.29
2023-01-19T08:24:35.703Z,0.27
2023-01-19T08:27:03.978Z,-0.06
2023-01-19T08:29:31.957Z,-0.25
2023-01-19T08:32:00.337Z,-0.12
2023-01-19T08:34:27.234Z,0.05
2023-01-19T08:36:54.152Z,0.12
2023-01-19T08:39:20.828Z,0.11
2023-01-19T08:41:47.436Z,0.12
2023-01-19T08:44:14.174Z,0.31
2023-01-19T08:46:40.845Z,0.04
2023-01-19T08:49:07.981Z,0.05
2023-01-19T08:51:35.016Z,-0.22
2023-01-19T08:54:01.689Z,-0.35
2023-01-19T08:56:28.290Z,-0.24
2023-01-19T08:59:08.130Z,-0.07
2023-01-19T09:01:37.436Z,0.06
2023-01-19T09:04:04.624Z,0.28
2023-01-19T09:06:31.319Z,0.56
2023-01-19T09:08:58.143Z,0.50
2023-01-19T09:11:24.762Z,0.58
2023-01-19T09:13:51.578Z,0.83
2023-01-19T09:16:18.464Z,1.12
2023-01-19T09:18:46.190Z,1.15
2023-01-19T09:21:13.885Z,1.07
2023-01-19T09:23:40.873Z,1.14
2023-01-19T09:26:07.620Z,1.37
2023-01-19T09:28:34.281Z,1.48
2023-01-19T09:31:06.686Z,1.19
2023-01-19T09:33:34.509Z,1.17
2023-01-19T09:36:02.254Z,0.98
2023-01-19T09:38:32.760Z,0.98
2023-01-19T09:41:00.455Z,0.94
2023-01-19T09:43:32.976Z,0.93
2023-01-19T09:46:03.001Z,0.86
2023-01-19T09:48:57.778Z,0.92
2023-01-19T09:51:32.934Z,0.57
2023-01-19T09:54:05.221Z,0.66
2023-01-19T09:56:32.945Z,0.50
2023-01-19T09:59:00.881Z,0.14
2023-01-19T10:01:38.465Z,0.05
2023-01-19T10:04:37.358Z,0.02
2023-01-19T10:07:09.437Z,0.17
2023-01-19T10:09:46.636Z,0.40
2023-01-19T10:12:17.918Z,0.45
2023-01-19T10:15:01.729Z,-0.08
2023-01-19T10:17:42.354Z,0.17
2023-01-19T10:20:19.769Z,0.69
2023-01-19T10:22:50.699Z,0.99
2023-01-19T10:25:24.565Z,1.15
2023-01-19T10:27:51.818Z,1.39
2023-01-19T10:30:30.256Z,1.14
2023-01-19T10:32:57.050Z,0.60
2023-01-19T10:35:25.225Z,0.53
2023-01-19T10:37:58.571Z,0.32
2023-01-19T10:40:42.379Z,0.40
2023-01-19T10:43:38.348Z,0.49
2023-01-19T10:46:19.256Z,0.44
2023-01-19T10:48:49.144Z,0.48
2023-01-19T10:51:15.977Z,1.08
2023-01-19T10:54:01.300Z,0.93
2023-01-19T10:56:35.282Z,0.95
2023-01-19T10:59:05.371Z,0.99
2023-01-19T11:01:36.870Z,0.45
2023-01-19T11:04:27.423Z,0.39
2023-01-19T11:07:35.765Z,0.83
2023-01-19T11:10:11.680Z,0.83
2023-01-19T11:12:43.740Z,0.85
2023-01-19T11:15:23.426Z,0.99
2023-01-19T11:17:50.531Z,1.10
2023-01-19T11:20:47.573Z,0.72
2023-01-19T11:23:14.131Z,0.52
2023-01-19T11:25:40.973Z,0.42
2023-01-19T11:28:27.703Z,0.20
2023-01-19T11:31:01.614Z,0.21
2023-01-19T11:33:49.826Z,0.24
2023-01-19T11:36:23.288Z,0.25
2023-01-19T11:38:53.421Z,-0.15
2023-01-19T11:41:29.655Z,-0.17
2023-01-19T11:44:13.374Z,-0.03
2023-01-19T11:46:43.392Z,-0.02
2023-01-19T11:49:27.525Z,0.02
2023-01-19T11:52:20.377Z,0.19
2023-01-19T11:55:17.339Z,0.28
2023-01-19T11:57:47.479Z,0.18
2023-01-19T12:00:44.737Z,0.34
2023-01-19T12:03:34.802Z,0.27
2023-01-19T12:06:06.847Z,0.28
2023-01-19T12:08:37.519Z,0.08
2023-01-19T12:11:05.989Z,0.12
2023-01-19T12:13:34.367Z,0.08
2023-01-19T12:16:20.001Z,0.11
2023-01-19T12:19:11.024Z,-0.34
2023-01-19T12:21:38.275Z,-0.37
2023-01-19T12:24:18.112Z,-0.41
2023-01-19T12:26:57.637Z,-0.24
2023-01-19T12:29:29.283Z,-0.09
2023-01-19T12:32:14.109Z,0.15
2023-01-19T12:34:41.605Z,0.42
2023-01-19T12:37:32.107Z,0.08
2023-01-19T12:40:05.635Z,0.35
2023-01-19T12:42:33.930Z,0.47
2023-01-19T12:45:17.092Z,0.60
2023-01-19T12:47:53.733Z,0.45
2023-01-19T12:50:23.514Z,0.71
2023-01-19T12:52:57.290Z,1.01
2023-01-19T12:55:31.238Z,0.34
2023-01-19T12:58:17.746Z,0.40
2023-01-19T13:00:49.731Z,1.09
2023-01-19T13:03:16.300Z,0.98
2023-01-19T13:05:42.923Z,0.99
2023-01-19T13:08:09.503Z,0.98
2023-01-19T13:11:00.073Z,0.92
2023-01-19T13:13:39.936Z,1.13
2023-01-19T13:16:18.833Z,0.57
2023-01-19T13:19:00.705Z,0.52
2023-01-19T13:21:30.492Z,0.70
2023-01-19T13:23:59.665Z,0.93
2023-01-19T13:26:32.837Z,0.94
2023-01-19T13:29:06.619Z,1.36
2023-01-19T13:31:39.559Z,1.47
2023-01-19T13:34:14.084Z,1.35
2023-01-19T13:36:45.665Z,0.87
2023-01-19T13:39:28.004Z,0.71
2023-01-19T13:41:57.831Z,0.45
2023-01-19T13:44:26.669Z,0.35
2023-01-19T13:46:54.479Z,0.21
2023-01-19T13:49:31.171Z,0.38
2023-01-19T13:52:17.000Z,0.29
2023-01-19T13:55:03.088Z,0.34
2023-01-19T13:57:39.470Z,0.57
2023-01-19T14:00:06.749Z,0.80
2023-01-19T14:02:33.571Z,0.85
2023-01-19T14:05:14.355Z,0.85
2023-01-19T14:07:41.132Z,0.88
2023-01-19T14:10:14.601Z,0.98
2023-01-19T14:12:54.503Z,0.48
2023-01-19T14:15:25.497Z,0.35
2023-01-19T14:18:32.260Z,0.00
2023-01-19T14:21:03.449Z,0.16
2023-01-19T14:23:48.358Z,0.44
2023-01-19T14:26:51.388Z,0.64
2023-01-19T14:29:25.652Z,0.53
2023-01-19T14:32:28.040Z,0.59
2023-01-19T14:35:04.270Z,0.13
2023-01-19T14:37:52.124Z,0.15
2023-01-19T14:40:21.518Z,0.39
2023-01-19T14:42:53.842Z,0.27
2023-01-19T14:45:35.312Z,0.28
2023-01-19T14:48:17.800Z,0.07
2023-01-19T14:51:01.324Z,-0.07
2023-01-19T14:53:29.941Z,-0.06
2023-01-19T14:56:01.010Z,-0.16
2023-01-19T14:58:31.564Z,-0.26
2023-01-19T15:00:58.404Z,-0.37
2023-01-19T15:03:38.564Z,-0.33
2023-01-19T15:06:18.820Z,-0.36
2023-01-19T15:08:46.269Z,-0.48
2023-01-19T15:11:37.491Z,-0.29
2023-01-19T15:14:04.210Z,-0.06
2023-01-19T15:16:34.254Z,-0.07
2023-01-19T15:19:00.976Z,0.07
2023-01-19T15:21:27.587Z,0.32
2023-01-19T15:23:55.239Z,0.65
2023-01-19T15:26:24.476Z,0.56
2023-01-19T15:28:51.525Z,0.85
2023-01-19T15:31:20.873Z,0.92
2023-01-19T15:33:47.875Z,0.69
2023-01-19T15:36:17.971Z,0.67
2023-01-19T15:38:45.683Z,0.59
2023-01-19T15:41:13.382Z,0.48
2023-01-19T15:43:40.092Z,0.44
2023-01-19T15:46:07.499Z,0.76
2023-01-19T15:48:34.238Z,1.09
2023-01-19T15:51:00.898Z,1.17
2023-01-19T15:53:27.930Z,1.26
2023-01-19T15:55:56.904Z,1.37
2023-01-19T15:58:24.378Z,1.48
2023-01-19T16:00:56.032Z,1.57
2023-01-19T16:03:25.532Z,1.55
2023-01-19T16:05:52.628Z,1.68
2023-01-19T16:08:19.372Z,1.49
2023-01-19T16:10:46.011Z,1.67
2023-01-19T16:13:12.918Z,1.61
2023-01-19T16:15:42.259Z,1.59
2023-01-19T16:18:08.909Z,1.76
2023-01-19T16:20:35.564Z,1.81
2023-01-19T16:23:14.513Z,1.84
2023-01-19T16:25:42.164Z,1.70
2023-01-19T16:28:09.205Z,1.71
2023-01-19T16:30:36.000Z,1.74
2023-01-19T16:33:02.700Z,1.64
2023-01-19T16:35:29.299Z,1.59
2023-01-19T16:37:55.950Z,1.51
2023-01-19T16:40:22.523Z,1.60
2023-01-19T16:42:49.312Z,1.42
2023-01-19T16:45:16.036Z,1.53
2023-01-19T16:47:43.092Z,1.59
2023-01-19T16:50:12.848Z,1.69
2023-01-19T16:52:39.746Z,1.48
2023-01-19T16:55:09.516Z,1.61
2023-01-19T16:57:38.979Z,1.46
2023-01-19T17:00:07.912Z,1.32
2023-01-19T17:02:34.638Z,1.16
2023-01-19T17:05:01.444Z,1.19
2023-01-19T17:07:28.771Z,1.32
2023-01-19T17:09:56.140Z,1.43
2023-01-19T17:12:22.804Z,1.37
2023-01-19T17:14:49.384Z,1.23
2023-01-19T17:17:15.978Z,1.14
2023-01-19T17:19:42.641Z,1.18
2023-01-19T17:22:09.283Z,1.06
2023-01-19T17:24:35.978Z,1.15
2023-01-19T17:27:02.585Z,1.28
2023-01-19T17:29:29.184Z,1.32
2023-01-19T17:31:55.780Z,1.29
2023-01-19T17:34:22.366Z,1.24
2023-01-19T17:36:51.406Z,1.31
2023-01-19T17:39:18.615Z,1.02
2023-01-19T17:41:45.299Z,0.95
2023-01-19T17:44:11.964Z,1.15
2023-01-19T17:46:39.181Z,1.07
2023-01-19T17:49:07.507Z,1.09
2023-01-19T17:51:35.200Z,1.15
2023-01-19T17:54:02.175Z,1.13
2023-01-19T17:56:32.326Z,1.04
2023-01-19T17:58:59.499Z,0.83
2023-01-19T18:01:31.610Z,0.87
2023-01-19T18:03:58.770Z,0.62
2023-01-19T18:06:25.429Z,0.14
2023-01-19T18:08:52.629Z,0.55
2023-01-19T18:11:21.218Z,0.73
2023-01-19T18:13:49.904Z,0.73
2023-01-19T18:16:25.949Z,0.46
2023-01-19T18:18:53.842Z,0.45
2023-01-19T18:21:21.935Z,0.45
2023-01-19T18:23:49.739Z,0.35
2023-01-19T18:26:21.317Z,0.42
2023-01-19T18:28:49.194Z,0.44
2023-01-19T18:31:19.057Z,0.09
2023-01-19T18:33:47.692Z,0.29
2023-01-19T18:36:14.640Z,0.24
2023-01-19T18:38:41.836Z,0.35
2023-01-19T18:41:14.196Z,0.44
2023-01-19T18:43:41.127Z,0.21
2023-01-19T18:46:08.033Z,0.30
2023-01-19T18:48:34.905Z,0.35
2023-01-19T18:51:09.354Z,0.44
2023-01-19T18:53:35.960Z,0.29
2023-01-19T18:56:03.383Z,0.30
2023-01-19T18:58:31.774Z,0.33
2023-01-19T19:01:00.349Z,0.14
2023-01-19T19:03:27.732Z,0.27
2023-01-19T19:05:54.506Z,0.21
2023-01-19T19:08:21.160Z,-0.22
2023-01-19T19:10:47.850Z,-0.43
2023-01-19T19:13:16.519Z,-0.21
2023-01-19T19:15:44.465Z,-0.10
2023-01-19T19:18:13.960Z,-0.08
2023-01-19T19:20:42.092Z,0.03
2023-01-19T19:23:09.740Z,0.07
2023-01-19T19:25:37.415Z,0.10
2023-01-19T19:28:04.484Z,0.03
2023-01-19T19:30:32.915Z,-0.13
2023-01-19T19:33:01.118Z,-0.12
2023-01-19T19:35:28.253Z,-0.33
2023-01-19T19:37:57.847Z,-0.51
2023-01-19T19:40:28.139Z,-0.60
2023-01-19T19:42:56.436Z,-0.81
2023-01-19T19:45:24.987Z,-1.04
2023-01-19T19:47:51.668Z,-1.24
2023-01-19T19:50:19.071Z,-1.33
2023-01-19T19:52:45.703Z,-1.31
2023-01-19T19:55:12.740Z,-1.37
2023-01-19T19:57:39.577Z,-1.45
2023-01-19T20:00:06.883Z,-1.50
2023-01-19T20:02:33.509Z,-1.57
2023-01-19T20:05:00.210Z,-1.50
2023-01-19T20:07:26.919Z,-1.50
2023-01-19T20:09:55.122Z,-1.47
2023-01-19T20:12:22.073Z,-1.50
2023-01-19T20:14:48.797Z,-1.35
2023-01-19T20:17:15.440Z,-1.29
2023-01-19T20:19:43.794Z,-1.30
2023-01-19T20:22:10.446Z,-1.40
2023-01-19T20:24:37.029Z,-1.96
2023-01-19T20:27:03.779Z,-1.65
2023-01-19T20:29:30.704Z,-1.49
2023-01-19T20:31:57.733Z,-1.45
2023-01-19T20:34:28.230Z,-1.44
2023-01-19T20:36:55.318Z,-2.01
2023-01-19T20:39:23.586Z,-1.89
2023-01-19T20:41:51.472Z,-1.84
2023-01-19T20:44:22.348Z,-2.15
2023-01-19T20:46:49.619Z,-1.88
2023-01-19T20:49:16.270Z,-1.83
2023-01-19T20:51:45.260Z,-1.81
2023-01-19T20:54:14.271Z,-1.78
2023-01-19T20:56:41.669Z,-2.11
2023-01-19T20:59:09.598Z,-1.88
2023-01-19T21:01:36.752Z,-1.89
2023-01-19T21:04:03.803Z,-2.12
2023-01-19T21:06:30.457Z,-2.45
2023-01-19T21:08:57.653Z,-2.57
2023-01-19T21:11:24.605Z,-2.58
2023-01-19T21:13:55.788Z,-2.44
2023-01-19T21:16:31.532Z,-2.40
2023-01-19T21:18:58.321Z,-2.32
2023-01-19T21:21:30.774Z,-2.35
2023-01-19T21:24:00.050Z,-2.19
2023-01-19T21:26:26.856Z,-2.61
2023-01-19T21:28:53.542Z,-2.83
2023-01-19T21:31:22.918Z,-3.10
2023-01-19T21:33:53.516Z,-3.24
2023-01-19T21:36:23.124Z,-2.73
2023-01-19T21:38:51.491Z,-2.62
2023-01-19T21:41:18.661Z,-2.45
2023-01-19T21:43:46.242Z,-2.64
2023-01-19T21:46:17.211Z,-2.57
2023-01-19T21:48:44.051Z,-2.51
2023-01-19T21:51:10.688Z,-2.43
2023-01-19T21:53:37.592Z,-2.33
2023-01-19T21:56:09.606Z,-2.98
2023-01-19T21:58:36.474Z,-2.90
2023-01-19T22:01:06.352Z,-3.01
2023-01-19T22:03:33.220Z,-3.27
2023-01-19T22:06:10.585Z,-2.84
2023-01-19T22:08:37.685Z,-2.70
2023-01-19T22:11:08.674Z,-2.51
2023-01-19T22:13:36.204Z,-2.49
2023-01-19T22:16:04.814Z,-2.37
2023-01-19T22:18:31.442Z,-2.65
2023-01-19T22:21:08.069Z,-2.70
2023-01-19T22:23:34.953Z,-2.78
2023-01-19T22:26:01.596Z,-2.55
2023-01-19T22:28:28.171Z,-2.63
2023-01-19T22:30:54.873Z,-2.58
2023-01-19T22:33:21.489Z,-2.37
2023-01-19T22:35:48.083Z,-2.42
2023-01-19T22:38:14.662Z,-2.48
2023-01-19T22:40:41.251Z,-2.50
2023-01-19T22:43:07.831Z,-2.81
2023-01-19T22:45:34.427Z,-2.66
2023-01-19T22:48:01.026Z,-2.57
2023-01-19T22:50:27.641Z,-2.60
2023-01-19T22:52:57.875Z,-2.36
2023-01-19T22:55:24.905Z,-2.24
2023-01-19T22:57:51.500Z,-2.28
2023-01-19T23:00:18.688Z,-2.29
2023-01-19T23:02:45.295Z,-2.28
2023-01-19T23:05:12.476Z,-2.21
2023-01-19T23:07:39.853Z,-2.21
2023-01-19T23:10:07.161Z,-2.19
2023-01-19T23:12:33.769Z,-2.26
2023-01-19T23:15:00.373Z,-2.24
2023-01-19T23:17:27.110Z,-2.60
2023-01-19T23:19:53.757Z,-2.66
2023-01-19T23:22:20.363Z,-2.40
2023-01-19T23:24:47.063Z,-2.91
2023-01-19T23:27:13.676Z,-3.10
2023-01-19T23:29:40.347Z,-3.23
2023-01-19T23:32:07.083Z,-3.10
2023-01-19T23:34:34.039Z,-2.79
2023-01-19T23:37:00.684Z,-2.59
2023-01-19T23:39:27.414Z,-2.41
2023-01-19T23:41:54.072Z,-2.47
2023-01-19T23:44:20.730Z,-2.38
2023-01-19T23:46:47.442Z,-2.19
2023-01-19T23:49:14.303Z,-2.26
2023-01-19T23:51:42.131Z,-2.22
2023-01-19T23:54:08.839Z,-2.25
2023-01-19T23:56:37.392Z,-2.27
2023-01-19T23:59:12.308Z,-2.15
